Time;durP1;ratioP1;P1;durP2;ratioP2;P2;SDS_P1;SDS_P2;PMS_P1;PMS_P2;Temp;Humidity;BMP_temperature;BMP_pressure;BME280_temperature;BME280_humidity;BME280_pressure;Samples;Min_cycle;Max_cycle;Signal;HPM_P1;HPM_P2
2023/08/06 00:00:56;;;;;;;3.45;1.10;;;18.80;99.90;;;;;;5027092;28;20693;-22
2023/08/06 00:03:24;;;;;;;2.65;1.08;;;18.90;99.90;;;;;;5024300;28;20333;-22
2023/08/06 00:05:51;;;;;;;2.90;1.10;;;18.80;99.90;;;;;;5006644;28;20209;-22
2023/08/06 00:08:18;;;;;;;2.40;1.00;;;18.90;99.90;;;;;;5003322;28;20409;-23
2023/08/06 00:10:50;;;;;;;3.33;1.05;;;18.80;99.90;;;;;;5013070;28;20212;-22
2023/08/06 00:13:17;;;;;;;2.58;1.10;;;18.90;99.90;;;;;;5024759;28;20255;-22
2023/08/06 00:15:47;;;;;;;4.00;1.10;;;18.80;99.90;;;;;;5024681;28;20251;-22
2023/08/06 00:18:14;;;;;;;3.10;1.30;;;18.90;99.90;;;;;;5018184;28;20221;-22
2023/08/06 00:20:41;;;;;;;4.53;1.05;;;18.90;99.90;;;;;;5016407;28;20832;-22
2023/08/06 00:23:11;;;;;;;2.08;1.10;;;18.80;99.90;;;;;;5022140;28;20212;-22
2023/08/06 00:25:41;;;;;;;2.10;0.90;;;18.90;99.90;;;;;;5021868;28;20208;-22
2023/08/06 00:28:08;;;;;;;2.45;1.00;;;18.80;99.90;;;;;;5017211;28;20224;-22
2023/08/06 00:30:38;;;;;;;1.35;0.70;;;18.90;99.90;;;;;;5023921;28;20201;-22
2023/08/06 00:33:06;;;;;;;2.78;1.10;;;18.90;99.90;;;;;;5023313;28;20357;-22
2023/08/06 00:35:35;;;;;;;2.40;1.00;;;18.80;99.90;;;;;;5025261;28;20241;-22
2023/08/06 00:38:05;;;;;;;1.93;1.07;;;18.80;99.90;;;;;;5020447;28;20274;-22
2023/08/06 00:40:37;;;;;;;2.65;1.00;;;18.80;99.90;;;;;;5025556;28;20236;-22
2023/08/06 00:43:07;;;;;;;2.05;1.08;;;18.90;99.90;;;;;;5008475;28;20205;-22
2023/08/06 00:45:40;;;;;;;1.73;0.80;;;18.80;99.90;;;;;;5025845;28;20226;-22
2023/08/06 00:48:09;;;;;;;3.10;1.17;;;18.80;99.90;;;;;;5023593;28;20282;-22
2023/08/06 00:50:42;;;;;;;2.00;1.10;;;18.80;99.90;;;;;;5012469;28;20209;-22
2023/08/06 00:53:10;;;;;;;3.15;1.05;;;18.80;99.90;;;;;;5026742;28;20327;-22
2023/08/06 00:55:37;;;;;;;3.20;0.80;;;18.80;99.90;;;;;;5026931;28;20236;-22
2023/08/06 00:58:08;;;;;;;1.52;0.73;;;18.80;99.90;;;;;;5026929;28;20625;-22
2023/08/06 01:00:36;;;;;;;2.30;0.82;;;18.80;99.90;;;;;;5019900;28;20228;-22
2023/08/06 01:03:05;;;;;;;2.90;1.00;;;18.80;99.90;;;;;;5021564;28;20217;-22
2023/08/06 01:05:32;;;;;;;2.53;1.00;;;18.80;99.90;;;;;;5026883;28;20215;-22
2023/08/06 01:08:08;;;;;;;1.10;1.00;;;18.80;99.90;;;;;;5022235;28;20218;-22
2023/08/06 01:10:57;;;;;;;1.73;1.00;;;18.80;99.90;;;;;;5016977;28;20714;-22
2023/08/06 01:13:29;;;;;;;2.72;1.02;;;18.80;99.90;;;;;;5025504;28;20651;-29
2023/08/06 01:15:58;;;;;;;3.20;1.08;;;18.80;99.90;;;;;;5033144;28;20201;-29
2023/08/06 01:18:26;;;;;;;2.50;1.00;;;18.80;99.90;;;;;;5024185;28;20278;-30
2023/08/06 01:20:55;;;;;;;4.57;1.35;;;18.80;99.90;;;;;;5014831;28;20205;-30
2023/08/06 01:23:25;;;;;;;2.60;1.33;;;18.80;99.90;;;;;;5022707;28;20266;-30
2023/08/06 01:26:19;;;;;;;4.68;1.70;;;18.80;99.90;;;;;;5027372;28;20308;-29
2023/08/06 01:29:13;;;;;;;2.67;1.17;;;18.80;99.90;;;;;;5024770;28;20277;-29
2023/08/06 01:31:43;;;;;;;2.97;1.60;;;18.80;99.90;;;;;;5016622;28;20666;-30
2023/08/06 01:34:16;;;;;;;2.25;1.20;;;18.80;99.90;;;;;;5027600;28;20697;-29
2023/08/06 01:36:44;;;;;;;2.10;1.23;;;18.80;99.90;;;;;;5028433;28;20682;-29
2023/08/06 01:39:12;;;;;;;4.40;1.40;;;18.80;99.90;;;;;;5008749;28;20326;-29
2023/08/06 01:41:42;;;;;;;2.40;1.40;;;18.80;99.90;;;;;;5021083;28;20205;-29
2023/08/06 01:44:10;;;;;;;3.67;1.75;;;18.80;99.90;;;;;;5027768;28;20213;-29
2023/08/06 01:46:37;;;;;;;2.88;2.00;;;18.80;99.90;;;;;;5026641;28;20212;-29
2023/08/06 01:49:04;;;;;;;4.10;1.70;;;18.80;99.90;;;;;;5028159;28;20269;-30
2023/08/06 01:51:31;;;;;;;3.03;1.70;;;18.80;99.90;;;;;;5026746;28;20712;-29
2023/08/06 01:54:01;;;;;;;3.65;1.70;;;18.90;99.90;;;;;;5028316;28;20721;-29
2023/08/06 01:56:30;;;;;;;1.90;1.55;;;18.80;99.90;;;;;;5026224;28;20254;-29
2023/08/06 01:59:00;;;;;;;2.30;1.73;;;18.90;99.90;;;;;;5021967;28;20201;-29
2023/08/06 02:01:32;;;;;;;3.58;1.60;;;18.90;99.90;;;;;;5018466;28;20626;-29
2023/08/06 02:04:05;;;;;;;4.25;1.92;;;18.90;99.90;;;;;;5026196;28;20667;-29
2023/08/06 02:06:32;;;;;;;2.00;1.75;;;18.80;99.90;;;;;;5030114;28;20282;-29
2023/08/06 02:08:59;;;;;;;3.58;2.17;;;18.80;99.90;;;;;;5026340;28;20243;-29
2023/08/06 02:11:26;;;;;;;1.88;1.77;;;18.90;99.90;;;;;;5026336;28;20247;-29
2023/08/06 02:13:54;;;;;;;4.15;1.85;;;18.90;99.90;;;;;;5024542;28;20201;-29
2023/08/06 02:16:24;;;;;;;3.97;2.22;;;18.90;99.90;;;;;;5025919;28;20682;-30
2023/08/06 02:18:51;;;;;;;2.67;2.00;;;18.90;99.90;;;;;;5009348;28;20201;-29
2023/08/06 02:21:18;;;;;;;2.60;2.00;;;18.90;99.90;;;;;;5027035;28;20228;-29
2023/08/06 02:23:53;;;;;;;3.17;2.10;;;18.90;99.90;;;;;;5025166;28;20291;-30
2023/08/06 02:26:20;;;;;;;2.38;2.13;;;18.90;99.90;;;;;;5009040;28;20200;-29
2023/08/06 02:28:47;;;;;;;3.85;2.22;;;18.90;99.90;;;;;;5023230;28;20204;-29
2023/08/06 02:31:14;;;;;;;3.65;1.98;;;18.90;99.90;;;;;;5018702;28;20699;-30
2023/08/06 02:33:49;;;;;;;5.28;2.25;;;18.90;99.90;;;;;;5009818;28;20190;-30
2023/08/06 02:36:22;;;;;;;5.47;2.38;;;19.00;99.90;;;;;;5018733;28;20556;-22
2023/08/06 02:38:52;;;;;;;2.83;2.03;;;18.90;99.90;;;;;;5013644;28;20230;-22
2023/08/06 02:41:21;;;;;;;4.35;2.28;;;18.90;99.90;;;;;;5008939;28;20204;-22
2023/08/06 02:43:48;;;;;;;3.50;2.20;;;19.00;99.90;;;;;;4989476;28;20225;-22
2023/08/06 02:46:16;;;;;;;4.07;2.20;;;18.90;99.90;;;;;;5025030;28;20212;-22
2023/08/06 02:48:46;;;;;;;3.45;2.10;;;18.90;99.90;;;;;;5022107;28;20284;-22
2023/08/06 02:51:13;;;;;;;4.32;2.65;;;18.90;99.90;;;;;;5005539;28;20732;-23
2023/08/06 02:53:49;;;;;;;3.55;2.15;;;18.90;99.90;;;;;;5019352;28;20207;-22
2023/08/06 02:56:23;;;;;;;3.35;2.17;;;18.90;99.90;;;;;;5026942;28;20770;-22
2023/08/06 02:58:53;;;;;;;4.05;2.30;;;18.90;99.90;;;;;;5027323;28;20204;-22
2023/08/06 03:01:23;;;;;;;3.67;2.30;;;18.90;99.90;;;;;;5026843;28;20203;-22
2023/08/06 03:03:53;;;;;;;3.57;2.40;;;18.90;99.90;;;;;;5022101;28;20209;-22
2023/08/06 03:06:20;;;;;;;3.45;2.28;;;18.90;99.90;;;;;;5008956;28;20199;-22
2023/08/06 03:08:49;;;;;;;4.70;2.38;;;18.90;99.90;;;;;;5021395;28;20678;-22
2023/08/06 03:11:16;;;;;;;2.70;2.25;;;18.80;99.90;;;;;;5005607;28;20280;-22
2023/08/06 03:13:44;;;;;;;3.97;2.60;;;18.80;99.90;;;;;;5007160;28;20632;-22
2023/08/06 03:16:14;;;;;;;6.22;2.67;;;18.80;99.90;;;;;;5025644;28;20253;-22
2023/08/06 03:18:43;;;;;;;3.08;2.38;;;18.80;99.90;;;;;;5027771;28;20200;-22
2023/08/06 03:21:13;;;;;;;7.13;2.53;;;18.80;99.90;;;;;;5018283;28;20754;-22
2023/08/06 03:23:40;;;;;;;5.65;2.42;;;18.80;99.90;;;;;;5024057;28;20717;-22
2023/08/06 03:26:10;;;;;;;5.35;2.30;;;18.80;99.90;;;;;;5011864;28;20252;-29
2023/08/06 03:28:44;;;;;;;3.88;2.50;;;18.80;99.90;;;;;;5023691;28;20209;-29
2023/08/06 03:31:19;;;;;;;4.53;2.60;;;18.80;99.90;;;;;;5007030;28;20215;-29
2023/08/06 03:33:46;;;;;;;3.63;2.67;;;18.80;99.90;;;;;;5026522;28;20608;-28
2023/08/06 03:36:15;;;;;;;5.30;2.70;;;18.80;99.90;;;;;;5025413;28;20723;-29
2023/08/06 03:38:43;;;;;;;4.28;2.55;;;18.80;99.90;;;;;;5016239;28;20274;-29
2023/08/06 03:41:10;;;;;;;4.72;2.70;;;18.80;99.90;;;;;;5026027;28;20682;-29
2023/08/06 03:43:39;;;;;;;4.78;3.05;;;18.80;99.90;;;;;;5004982;28;20206;-29
2023/08/06 03:46:11;;;;;;;5.22;3.60;;;18.90;99.90;;;;;;5024970;28;20878;-29
2023/08/06 03:48:41;;;;;;;5.78;3.83;;;18.90;99.90;;;;;;5023561;28;20212;-29
2023/08/06 03:51:08;;;;;;;4.70;3.88;;;18.90;99.90;;;;;;5012789;28;20208;-29
2023/08/06 03:53:38;;;;;;;5.35;4.25;;;18.90;99.90;;;;;;5003392;28;20259;-29
2023/08/06 03:56:07;;;;;;;5.68;3.88;;;18.90;99.90;;;;;;5006346;28;20249;-22
2023/08/06 03:58:34;;;;;;;7.47;4.18;;;18.90;99.90;;;;;;5020220;28;20199;-22
2023/08/06 04:01:03;;;;;;;5.80;5.10;;;18.90;99.90;;;;;;5022287;28;20209;-22
2023/08/06 04:03:31;;;;;;;9.57;5.70;;;18.90;99.90;;;;;;5014453;28;20207;-22
2023/08/06 04:05:58;;;;;;;7.22;5.32;;;18.90;99.90;;;;;;5034501;28;20451;-22
2023/08/06 04:08:25;;;;;;;6.05;5.45;;;18.90;99.90;;;;;;5028671;28;20278;-22
2023/08/06 04:10:53;;;;;;;6.20;5.18;;;18.90;99.90;;;;;;5023495;28;20347;-22
2023/08/06 04:13:20;;;;;;;8.63;6.22;;;18.90;99.90;;;;;;5024159;28;20332;-22
2023/08/06 04:15:50;;;;;;;7.85;5.97;;;18.90;99.90;;;;;;5023944;28;20671;-22
2023/08/06 04:18:17;;;;;;;6.95;6.03;;;18.90;99.90;;;;;;5010859;28;20291;-22
2023/08/06 04:20:46;;;;;;;8.77;7.10;;;18.90;99.90;;;;;;5011312;28;20598;-22
2023/08/06 04:23:13;;;;;;;8.45;7.13;;;18.90;99.90;;;;;;5007467;28;20221;-22
2023/08/06 04:25:40;;;;;;;9.70;8.15;;;18.90;99.90;;;;;;5022871;28;20213;-22
2023/08/06 04:28:10;;;;;;;8.70;7.80;;;18.90;99.90;;;;;;5003149;28;20221;-22
2023/08/06 04:30:39;;;;;;;9.40;7.80;;;18.80;99.90;;;;;;5005739;28;20217;-22
2023/08/06 04:33:06;;;;;;;8.95;7.50;;;18.90;99.90;;;;;;5008936;28;20216;-22
2023/08/06 04:35:33;;;;;;;7.53;6.65;;;18.90;99.90;;;;;;5015512;28;20252;-22
2023/08/06 04:38:01;;;;;;;5.97;5.38;;;18.80;99.90;;;;;;5022623;28;20715;-22
2023/08/06 04:40:28;;;;;;;5.90;5.22;;;18.80;99.90;;;;;;5018583;28;20224;-22
2023/08/06 04:42:55;;;;;;;5.50;4.72;;;18.80;99.90;;;;;;5021180;28;20206;-22
2023/08/06 04:45:24;;;;;;;3.83;2.88;;;18.80;99.90;;;;;;5012106;28;20833;-23
2023/08/06 04:47:51;;;;;;;2.30;2.03;;;18.70;99.90;;;;;;5017468;28;20216;-22
2023/08/06 04:50:22;;;;;;;1.50;1.20;;;18.70;99.90;;;;;;5016281;28;20221;-22
2023/08/06 04:52:51;;;;;;;2.53;1.08;;;18.60;99.90;;;;;;5019057;28;20729;-22
2023/08/06 04:55:18;;;;;;;1.10;0.85;;;18.50;99.90;;;;;;5021534;28;20710;-23
2023/08/06 04:57:50;;;;;;;0.97;0.70;;;18.50;99.90;;;;;;5022758;28;20220;-22
2023/08/06 05:00:18;;;;;;;0.80;0.60;;;18.50;99.90;;;;;;5009782;28;20667;-22
2023/08/06 05:02:49;;;;;;;0.73;0.60;;;18.40;99.90;;;;;;4996269;28;20312;-22
2023/08/06 05:05:19;;;;;;;0.60;0.60;;;18.30;99.90;;;;;;5015502;28;20208;-22
2023/08/06 05:07:54;;;;;;;0.95;0.63;;;18.30;99.90;;;;;;5024754;28;20220;-22
2023/08/06 05:10:31;;;;;;;2.25;1.13;;;18.20;99.90;;;;;;5024137;28;20247;-22
2023/08/06 05:13:01;;;;;;;1.92;1.40;;;18.00;99.90;;;;;;5025183;28;20205;-22
2023/08/06 05:15:28;;;;;;;4.65;1.90;;;17.90;99.90;;;;;;5019031;28;20221;-22
2023/08/06 05:17:55;;;;;;;3.13;2.33;;;17.80;99.90;;;;;;5004980;28;20225;-22
2023/08/06 05:20:30;;;;;;;3.85;2.78;;;17.80;99.90;;;;;;5021288;28;20215;-22
2023/08/06 05:22:59;;;;;;;4.40;3.03;;;17.70;99.90;;;;;;5021255;28;20204;-23
2023/08/06 05:25:29;;;;;;;4.10;2.97;;;17.70;99.90;;;;;;5020854;28;20212;-23
2023/08/06 05:27:59;;;;;;;7.50;3.17;;;17.60;99.90;;;;;;5024576;28;20217;-22
2023/08/06 05:30:29;;;;;;;4.03;2.73;;;17.60;99.90;;;;;;5023499;28;20221;-23
2023/08/06 05:32:57;;;;;;;5.37;2.60;;;17.50;99.90;;;;;;5024877;28;20243;-23
2023/08/06 05:35:31;;;;;;;4.80;2.70;;;17.50;99.90;;;;;;5024654;28;20213;-22
2023/08/06 05:37:59;;;;;;;4.43;2.80;;;17.60;99.90;;;;;;5025356;28;20278;-23
2023/08/06 05:40:28;;;;;;;5.10;2.73;;;17.50;99.90;;;;;;5027402;28;20292;-22
2023/08/06 05:42:58;;;;;;;6.57;2.70;;;17.50;99.90;;;;;;5026043;28;20208;-22
2023/08/06 05:45:25;;;;;;;2.83;2.30;;;17.50;99.90;;;;;;5028394;28;20682;-22
2023/08/06 05:47:54;;;;;;;5.00;2.33;;;17.50;99.90;;;;;;5025363;28;20434;-22
2023/08/06 05:50:21;;;;;;;4.07;2.25;;;17.40;99.90;;;;;;5018762;28;20205;-22
2023/08/06 05:52:48;;;;;;;4.97;2.40;;;17.40;99.90;;;;;;5023166;28;20557;-22
2023/08/06 05:55:15;;;;;;;4.67;2.53;;;17.30;99.90;;;;;;5019198;28;20278;-22
2023/08/06 05:57:42;;;;;;;4.87;2.50;;;17.30;99.90;;;;;;5027776;28;20221;-22
2023/08/06 06:00:10;;;;;;;4.80;2.20;;;17.30;99.90;;;;;;5027357;28;20710;-21
2023/08/06 06:02:40;;;;;;;3.97;2.45;;;17.20;99.90;;;;;;5026449;28;20204;-22
2023/08/06 06:05:08;;;;;;;4.53;2.13;;;17.20;99.90;;;;;;5025341;28;20221;-22
2023/08/06 06:07:35;;;;;;;4.23;2.17;;;17.20;99.90;;;;;;5046318;28;20678;-22
2023/08/06 06:10:06;;;;;;;3.03;1.90;;;17.20;99.90;;;;;;5047047;28;20197;-22
2023/08/06 06:12:33;;;;;;;5.10;2.17;;;17.20;99.90;;;;;;5017076;28;20619;-22
2023/08/06 06:15:07;;;;;;;2.23;1.63;;;17.20;99.90;;;;;;5035515;28;20663;-22
2023/08/06 06:17:35;;;;;;;3.37;2.00;;;17.20;99.90;;;;;;5047622;28;20688;-22
2023/08/06 06:20:05;;;;;;;11.20;2.90;;;17.20;99.90;;;;;;5043931;28;20192;-22
2023/08/06 06:22:35;;;;;;;5.73;2.27;;;17.10;99.90;;;;;;5009116;28;20666;-22
2023/08/06 06:25:02;;;;;;;4.83;2.50;;;17.10;99.90;;;;;;5008879;28;20334;-22
2023/08/06 06:27:30;;;;;;;4.93;2.40;;;17.10;99.90;;;;;;5037453;28;20212;-22
2023/08/06 06:29:57;;;;;;;6.53;2.60;;;17.10;99.90;;;;;;5035030;28;20241;-22
2023/08/06 06:32:25;;;;;;;7.07;2.38;;;17.10;99.90;;;;;;5021855;28;20206;-22
2023/08/06 06:34:55;;;;;;;5.70;2.40;;;17.10;99.90;;;;;;5030786;28;20286;-23
2023/08/06 06:37:22;;;;;;;5.53;2.37;;;17.10;99.90;;;;;;5018427;28;20762;-23
2023/08/06 06:39:51;;;;;;;6.90;2.80;;;17.10;99.90;;;;;;5011838;28;20306;-23
2023/08/06 06:42:22;;;;;;;5.77;2.47;;;17.10;99.90;;;;;;5006010;28;20741;-22
2023/08/06 06:44:51;;;;;;;5.13;2.10;;;17.10;99.90;;;;;;5013886;28;20612;-23
2023/08/06 06:47:19;;;;;;;7.03;2.30;;;17.10;99.90;;;;;;5014377;28;20634;-23
2023/08/06 06:49:48;;;;;;;4.97;2.43;;;17.10;99.90;;;;;;5021854;28;20215;-23
2023/08/06 06:52:15;;;;;;;5.00;2.50;;;17.20;99.90;;;;;;5035770;28;20205;-23
2023/08/06 06:54:45;;;;;;;5.93;2.50;;;17.20;99.90;;;;;;5031063;28;20219;-23
2023/08/06 06:57:12;;;;;;;7.27;2.87;;;17.20;99.90;;;;;;5020610;28;20312;-23
2023/08/06 06:59:40;;;;;;;5.57;2.83;;;17.20;99.90;;;;;;5013229;28;20201;-23
2023/08/06 07:02:09;;;;;;;6.63;2.60;;;17.20;99.90;;;;;;5045081;28;20223;-23
2023/08/06 07:04:38;;;;;;;7.70;2.70;;;17.20;99.90;;;;;;5035243;28;20212;-23
2023/08/06 07:07:06;;;;;;;6.87;3.00;;;17.20;99.90;;;;;;5007317;28;20201;-23
2023/08/06 07:09:33;;;;;;;4.37;2.70;;;17.20;99.90;;;;;;5010558;28;20255;-23
2023/08/06 07:12:01;;;;;;;5.13;2.70;;;17.20;99.90;;;;;;5016016;28;20213;-23
2023/08/06 07:14:29;;;;;;;7.60;2.93;;;17.20;99.90;;;;;;5018660;28;20221;-23
2023/08/06 07:16:58;;;;;;;6.70;3.27;;;17.20;99.90;;;;;;5033838;28;20229;-23
2023/08/06 07:19:28;;;;;;;5.10;2.80;;;17.20;99.90;;;;;;5034108;28;20727;-23
2023/08/06 07:21:57;;;;;;;6.07;2.60;;;17.30;99.90;;;;;;5018318;28;20205;-23
2023/08/06 07:24:24;;;;;;;5.47;3.17;;;17.30;99.90;;;;;;5021186;28;20272;-23
2023/08/06 07:26:52;;;;;;;8.53;3.20;;;17.30;99.90;;;;;;5008450;28;20201;-23
2023/08/06 07:29:22;;;;;;;5.67;2.90;;;17.20;99.90;;;;;;5005004;28;20543;-23
2023/08/06 07:31:50;;;;;;;7.83;2.70;;;17.30;99.90;;;;;;5019866;28;20820;-23
2023/08/06 07:34:18;;;;;;;6.27;2.80;;;17.30;99.90;;;;;;5013169;28;20225;-23
2023/08/06 07:36:48;;;;;;;5.83;2.87;;;17.30;99.90;;;;;;5010896;28;20647;-23
2023/08/06 07:39:16;;;;;;;7.50;2.53;;;17.30;99.90;;;;;;5021498;28;20710;-23
2023/08/06 07:41:45;;;;;;;7.47;2.77;;;17.30;99.90;;;;;;5019484;28;20762;-23
2023/08/06 07:44:13;;;;;;;7.63;2.70;;;17.30;99.90;;;;;;5019451;28;20587;-23
2023/08/06 07:46:42;;;;;;;5.50;2.80;;;17.30;99.90;;;;;;5022277;28;20679;-23
2023/08/06 07:49:13;;;;;;;5.47;2.20;;;17.30;99.90;;;;;;5013919;28;20279;-23
2023/08/06 07:51:40;;;;;;;6.60;1.93;;;17.30;99.90;;;;;;5030215;28;20224;-23
2023/08/06 07:54:08;;;;;;;6.67;2.40;;;17.30;99.90;;;;;;5015769;28;20208;-23
2023/08/06 07:56:37;;;;;;;7.47;2.07;;;17.40;99.90;;;;;;5015056;28;20218;-23
2023/08/06 07:59:07;;;;;;;6.33;2.20;;;17.40;99.90;;;;;;5035241;28;20298;-23
2023/08/06 08:01:34;;;;;;;7.20;1.67;;;17.40;99.90;;;;;;5024460;28;20478;-23
2023/08/06 08:04:02;;;;;;;7.17;2.10;;;17.40;99.90;;;;;;5023894;28;20204;-23
2023/08/06 08:06:29;;;;;;;8.70;1.57;;;17.30;99.90;;;;;;5024397;28;20204;-23
2023/08/06 08:08:56;;;;;;;7.97;1.63;;;17.30;99.90;;;;;;5012375;28;20286;-23
2023/08/06 08:11:25;;;;;;;6.60;1.50;;;17.30;99.90;;;;;;5008434;28;20313;-23
2023/08/06 08:13:53;;;;;;;7.37;1.90;;;17.30;99.90;;;;;;5005575;28;20214;-23
2023/08/06 08:16:24;;;;;;;6.27;1.63;;;17.30;99.90;;;;;;5013824;28;20236;-23
2023/08/06 08:18:51;;;;;;;8.40;1.50;;;17.30;99.90;;;;;;5017868;28;20193;-23
2023/08/06 08:21:21;;;;;;;8.87;1.80;;;17.40;99.90;;;;;;5006417;28;20272;-23
2023/08/06 08:23:48;;;;;;;5.83;1.63;;;17.40;99.90;;;;;;5006178;28;20263;-23
2023/08/06 08:26:15;;;;;;;6.93;1.87;;;17.40;99.90;;;;;;5015585;28;20225;-23
2023/08/06 08:28:45;;;;;;;8.50;1.87;;;17.40;99.90;;;;;;5025585;28;20313;-23
2023/08/06 08:31:12;;;;;;;6.93;1.60;;;17.50;99.90;;;;;;5014289;28;20349;-23
2023/08/06 08:33:41;;;;;;;8.80;1.80;;;17.50;99.90;;;;;;5006660;28;20212;-23
2023/08/06 08:36:09;;;;;;;7.20;1.60;;;17.50;99.90;;;;;;5010867;28;20236;-23
2023/08/06 08:38:37;;;;;;;7.17;2.03;;;17.50;99.90;;;;;;5012488;28;20286;-23
2023/08/06 08:41:09;;;;;;;6.03;2.00;;;17.50;99.90;;;;;;5025137;28;20216;-23
2023/08/06 08:43:37;;;;;;;7.73;1.70;;;17.60;99.90;;;;;;5024312;28;20590;-27
2023/08/06 08:46:10;;;;;;;6.33;1.70;;;17.60;99.90;;;;;;5004198;28;20200;-27
2023/08/06 08:48:37;;;;;;;5.23;1.57;;;17.60;99.90;;;;;;5018463;28;20292;-27
2023/08/06 08:51:07;;;;;;;7.47;2.10;;;17.60;99.90;;;;;;5024565;28;20200;-27
2023/08/06 08:53:38;;;;;;;9.67;1.87;;;17.60;99.90;;;;;;5021830;28;20244;-27
2023/08/06 08:56:09;;;;;;;6.73;1.60;;;17.50;99.90;;;;;;5017995;28;20244;-27
2023/08/06 08:58:38;;;;;;;6.53;1.73;;;17.50;99.90;;;;;;5007375;28;20208;-27
2023/08/06 09:01:09;;;;;;;5.63;1.70;;;17.50;99.90;;;;;;4988556;28;20201;-27
2023/08/06 09:03:37;;;;;;;5.53;2.07;;;17.50;99.90;;;;;;5011870;28;20679;-27
2023/08/06 09:06:06;;;;;;;8.27;1.87;;;17.50;99.90;;;;;;5014585;28;20205;-27
2023/08/06 09:08:41;;;;;;;5.83;1.57;;;17.50;99.90;;;;;;5021956;28;20259;-27
2023/08/06 09:11:12;;;;;;;5.50;1.60;;;17.50;99.90;;;;;;5006519;28;20217;-26
2023/08/06 09:13:40;;;;;;;6.83;1.63;;;17.50;99.90;;;;;;5008858;28;20205;-27
2023/08/06 09:16:09;;;;;;;4.83;1.60;;;17.50;99.90;;;;;;5016545;28;20217;-27
2023/08/06 09:18:41;;;;;;;7.00;1.70;;;17.50;99.90;;;;;;5018078;28;20205;-27
2023/08/06 09:21:17;;;;;;;6.73;1.50;;;17.50;99.90;;;;;;5024477;28;20217;-27
2023/08/06 09:23:45;;;;;;;7.90;1.97;;;17.40;99.90;;;;;;5007849;28;20774;-27
2023/08/06 09:26:15;;;;;;;6.33;1.73;;;17.40;99.90;;;;;;5010080;28;20208;-27
2023/08/06 09:28:48;;;;;;;5.70;1.67;;;17.40;99.90;;;;;;5012737;28;20225;-27
2023/08/06 09:31:18;;;;;;;6.27;1.97;;;17.40;99.90;;;;;;5014396;28;20677;-27
2023/08/06 09:33:54;;;;;;;5.43;1.80;;;17.40;99.90;;;;;;5028389;28;20715;-27
2023/08/06 09:36:29;;;;;;;6.30;1.73;;;17.40;99.90;;;;;;5028352;28;20238;-27
2023/08/06 09:38:56;;;;;;;5.57;1.60;;;17.40;99.90;;;;;;5023954;28;20933;-27
2023/08/06 09:41:34;;;;;;;7.63;1.97;;;17.40;99.90;;;;;;5010960;28;20206;-27
2023/08/06 09:44:01;;;;;;;5.93;1.87;;;17.40;99.90;;;;;;5019753;28;20212;-27
2023/08/06 09:46:31;;;;;;;5.97;1.93;;;17.40;99.90;;;;;;5024496;28;20279;-27
2023/08/06 09:48:59;;;;;;;3.80;1.40;;;17.40;99.90;;;;;;5022889;28;20213;-27
2023/08/06 09:51:29;;;;;;;4.20;1.30;;;17.40;99.90;;;;;;5025413;28;20224;-28
2023/08/06 09:53:57;;;;;;;7.83;1.73;;;17.40;99.90;;;;;;5026637;28;20231;-27
2023/08/06 09:56:26;;;;;;;5.47;1.30;;;17.40;99.90;;;;;;5027220;28;20225;-28
2023/08/06 09:58:55;;;;;;;4.63;1.40;;;17.40;99.90;;;;;;5027720;28;20200;-27
2023/08/06 10:01:22;;;;;;;5.87;1.53;;;17.40;99.90;;;;;;5010535;28;20243;-28
2023/08/06 10:03:57;;;;;;;4.73;1.40;;;17.40;99.90;;;;;;5026702;28;20215;-27
2023/08/06 10:06:26;;;;;;;5.27;1.43;;;17.40;99.90;;;;;;5028373;28;20212;-27
2023/08/06 10:08:55;;;;;;;4.63;1.73;;;17.40;99.90;;;;;;5028310;28;20205;-28
2023/08/06 10:11:27;;;;;;;3.53;1.43;;;17.40;99.90;;;;;;5028243;28;20716;-27
2023/08/06 10:14:03;;;;;;;5.50;2.10;;;17.40;99.90;;;;;;5028252;28;20212;-27
2023/08/06 10:16:34;;;;;;;3.90;1.33;;;17.40;99.90;;;;;;5028136;28;20568;-27
2023/08/06 10:19:07;;;;;;;4.97;1.50;;;17.40;99.90;;;;;;5028106;28;20283;-27
2023/08/06 10:21:34;;;;;;;4.40;1.30;;;17.40;99.90;;;;;;5027904;28;20518;-27
2023/08/06 10:24:10;;;;;;;3.60;1.10;;;17.30;99.90;;;;;;5010401;28;20251;-27
2023/08/06 10:26:39;;;;;;;7.73;1.40;;;17.30;99.90;;;;;;5028531;28;20279;-27
2023/08/06 10:29:35;;;;;;;4.13;1.57;;;17.30;99.90;;;;;;5026730;28;20287;-27
2023/08/06 10:32:04;;;;;;;5.93;2.03;;;17.30;99.90;;;;;;5042429;28;20204;-27
2023/08/06 10:34:57;;;;;;;4.87;1.70;;;17.30;99.90;;;;;;5027775;28;20204;-27
2023/08/06 10:37:35;;;;;;;9.00;1.87;;;17.30;99.90;;;;;;5026094;28;20240;-27
2023/08/06 10:40:07;;;;;;;6.20;1.73;;;17.20;99.90;;;;;;5026201;28;20217;-27
2023/08/06 10:42:35;;;;;;;5.37;1.80;;;17.20;99.90;;;;;;5027876;28;20196;-27
2023/08/06 10:45:15;;;;;;;7.53;1.90;;;17.20;99.90;;;;;;5027715;28;20212;-27
2023/08/06 10:47:44;;;;;;;4.30;1.37;;;17.20;99.90;;;;;;5026386;28;20205;-27
2023/08/06 10:50:13;;;;;;;7.03;2.00;;;17.20;99.90;;;;;;5027622;28;20223;-27
2023/08/06 10:52:41;;;;;;;5.27;1.60;;;17.20;99.90;;;;;;5026192;28;20232;-27
2023/08/06 10:55:10;;;;;;;5.33;1.50;;;17.10;99.90;;;;;;5025971;28;20279;-27
2023/08/06 10:57:41;;;;;;;6.18;1.85;;;17.10;99.90;;;;;;5025944;28;20715;-27
2023/08/06 11:00:13;;;;;;;6.43;1.70;;;17.10;99.90;;;;;;5026005;28;20201;-27
2023/08/06 11:02:52;;;;;;;7.70;1.77;;;17.10;99.90;;;;;;5027957;28;20263;-27
2023/08/06 11:05:22;;;;;;;5.17;1.80;;;17.10;99.90;;;;;;5027500;28;20777;-27
2023/08/06 11:07:51;;;;;;;3.43;1.53;;;17.10;99.90;;;;;;5025693;28;20765;-27
2023/08/06 11:10:20;;;;;;;6.40;1.40;;;17.10;99.90;;;;;;5025931;28;20209;-27
2023/08/06 11:12:53;;;;;;;6.70;1.70;;;17.10;99.90;;;;;;5009605;28;20274;-27
2023/08/06 11:15:21;;;;;;;6.27;1.80;;;17.10;99.90;;;;;;5025585;28;20221;-27
2023/08/06 11:17:50;;;;;;;5.80;1.60;;;17.10;99.90;;;;;;5026783;28;20228;-27
2023/08/06 11:20:20;;;;;;;6.93;1.70;;;17.10;99.90;;;;;;5026798;28;20612;-27
2023/08/06 11:22:47;;;;;;;5.18;1.73;;;17.10;99.90;;;;;;5027115;28;20201;-28
2023/08/06 11:25:14;;;;;;;5.93;1.60;;;17.10;99.90;;;;;;5025542;28;20290;-27
2023/08/06 11:27:47;;;;;;;7.80;2.10;;;17.00;99.90;;;;;;5026889;28;20200;-27
2023/08/06 11:30:20;;;;;;;6.43;2.27;;;17.00;99.90;;;;;;5026676;28;20228;-27
2023/08/06 11:33:02;;;;;;;5.67;1.87;;;17.00;99.90;;;;;;5025359;28;20632;-27
2023/08/06 11:35:37;;;;;;;5.50;1.70;;;17.00;99.90;;;;;;5026170;28;20205;-27
2023/08/06 11:38:08;;;;;;;7.53;1.87;;;17.00;99.90;;;;;;5025585;28;20233;-27
2023/08/06 11:40:36;;;;;;;4.03;1.60;;;17.00;99.90;;;;;;5026815;28;20292;-27
2023/08/06 11:43:03;;;;;;;5.23;1.80;;;17.00;99.90;;;;;;5026608;28;20202;-27
2023/08/06 11:45:30;;;;;;;4.83;2.07;;;16.90;99.90;;;;;;5026754;28;20576;-27
2023/08/06 11:48:02;;;;;;;4.63;1.80;;;17.00;99.90;;;;;;5024973;28;20220;-27
2023/08/06 11:50:30;;;;;;;7.15;1.90;;;17.00;99.90;;;;;;5026292;28;20683;-27
2023/08/06 11:53:00;;;;;;;4.30;1.67;;;17.00;99.90;;;;;;5026678;28;20403;-27
2023/08/06 11:55:29;;;;;;;3.77;1.57;;;17.00;99.90;;;;;;5024819;28;20683;-27
2023/08/06 11:57:56;;;;;;;4.13;1.47;;;17.00;99.90;;;;;;5026070;28;20217;-27
2023/08/06 12:00:30;;;;;;;3.80;1.53;;;16.90;99.90;;;;;;5024842;28;20228;-27
2023/08/06 12:02:57;;;;;;;4.17;1.40;;;16.90;99.90;;;;;;5024676;28;20755;-27
2023/08/06 12:05:38;;;;;;;4.73;1.60;;;16.90;99.90;;;;;;5024627;28;20208;-27
2023/08/06 12:08:05;;;;;;;4.53;1.57;;;16.90;99.90;;;;;;5026160;28;20247;-27
2023/08/06 12:10:33;;;;;;;5.07;1.40;;;16.90;99.90;;;;;;5023679;28;20473;-27
2023/08/06 12:13:01;;;;;;;5.20;1.63;;;16.90;99.90;;;;;;5044987;28;20199;-28
2023/08/06 12:15:33;;;;;;;4.10;1.40;;;16.90;99.90;;;;;;5046107;28;20208;-27
2023/08/06 12:18:01;;;;;;;5.90;1.60;;;16.90;99.90;;;;;;5044907;28;20289;-23
2023/08/06 12:20:30;;;;;;;5.80;1.60;;;16.90;99.90;;;;;;5045761;28;20295;-23
2023/08/06 12:22:58;;;;;;;5.20;1.40;;;16.90;99.90;;;;;;5045578;28;20230;-23
2023/08/06 12:25:25;;;;;;;5.13;1.30;;;16.90;99.90;;;;;;5044385;28;20200;-23
2023/08/06 12:27:52;;;;;;;7.27;1.57;;;17.00;99.90;;;;;;5044319;28;20212;-23
2023/08/06 12:30:19;;;;;;;6.43;1.50;;;17.00;99.90;;;;;;5046112;28;20204;-23
2023/08/06 12:32:47;;;;;;;5.53;1.63;;;17.00;99.90;;;;;;5027890;28;20227;-22
2023/08/06 12:35:20;;;;;;;6.50;1.70;;;17.00;99.90;;;;;;5045857;28;20302;-23
2023/08/06 12:37:57;;;;;;;6.73;1.97;;;17.00;99.90;;;;;;5043907;28;20243;-23
2023/08/06 12:40:26;;;;;;;6.27;1.93;;;17.00;99.90;;;;;;5044172;28;20215;-23
2023/08/06 12:43:07;;;;;;;7.03;1.83;;;17.00;99.90;;;;;;5045663;28;20218;-22
2023/08/06 12:45:36;;;;;;;6.97;2.10;;;17.00;99.90;;;;;;5030658;28;20219;-22
2023/08/06 12:48:04;;;;;;;7.77;1.90;;;17.00;99.90;;;;;;5052630;28;20204;-23
2023/08/06 12:50:34;;;;;;;6.70;2.10;;;17.00;99.90;;;;;;5052039;28;20277;-23
2023/08/06 12:53:10;;;;;;;10.80;2.33;;;17.00;99.90;;;;;;5053068;28;20217;-23
2023/08/06 12:55:38;;;;;;;7.43;2.30;;;17.00;99.90;;;;;;5052430;28;20253;-23
2023/08/06 12:58:08;;;;;;;4.50;1.83;;;17.10;99.90;;;;;;5050795;28;20315;-23
2023/08/06 13:00:38;;;;;;;7.40;1.70;;;17.10;99.90;;;;;;5050829;28;20227;-23